Time;durP1;ratioP1;P1;durP2;ratioP2;P2;SDS_P1;SDS_P2;PMS_P1;PMS_P2;Temp;Humidity;BMP_temperature;BMP_pressure;BME280_temperature;BME280_humidity;BME280_pressure;Samples;Min_cycle;Max_cycle;Signal;HPM_P1;HPM_P2
2023/02/22 00:02:25;;;;;;;;;;;;;;;2.65;72.63;101387.11;107774;1257;67172;-84
2023/02/22 00:04:55;;;;;;;;;;;;;;;2.64;72.67;101386.81;107718;1257;124360;-83
2023/02/22 00:07:36;;;;;;;;;;;;;;;2.62;72.28;101392.41;107666;1258;61163;-85
2023/02/22 00:10:25;;;;;;;;;;;;;;;2.59;72.20;101392.89;107099;1257;124598;-85
2023/02/22 00:12:53;;;;;;;;;;;;;;;2.59;72.04;101394.77;107478;1257;74683;-85
2023/02/22 00:15:26;;;;;;;;;;;;;;;2.58;71.74;101404.98;107394;1257;67583;-85
2023/02/22 00:18:15;;;;;;;;;;;;;;;2.56;71.63;101401.39;107359;1256;125005;-85
2023/02/22 00:20:50;;;;;;;;;;;;;;;2.57;71.59;101402.96;107346;1257;61150;-85
2023/02/22 00:23:24;;;;;;;;;;;;;;;2.57;71.29;101401.29;107376;1257;123772;-85
2023/02/22 00:26:04;;;;;;;;;;;;;;;2.58;71.35;101407.58;107359;1257;73467;-84
2023/02/22 00:28:59;;;;;;;;;;;;;;;2.57;70.75;101412.35;107077;1258;124401;-84
2023/02/22 00:31:35;;;;;;;;;;;;;;;2.52;70.65;101411.55;107199;1257;70416;-84
2023/02/22 00:34:08;;;;;;;;;;;;;;;2.49;70.45;101408.35;107180;1258;124174;-85
2023/02/22 00:36:39;;;;;;;;;;;;;;;2.49;70.52;101412.48;107415;1257;60178;-85
2023/02/22 00:39:19;;;;;;;;;;;;;;;2.50;70.34;101415.14;107629;1257;74728;-85
2023/02/22 00:41:48;;;;;;;;;;;;;;;2.48;70.14;101417.64;107642;1258;124384;-85
2023/02/22 00:44:20;;;;;;;;;;;;;;;2.47;70.13;101416.71;107520;1256;72435;-85
2023/02/22 00:46:51;;;;;;;;;;;;;;;2.49;70.19;101417.52;107675;1257;125607;-86
2023/02/22 00:49:26;;;;;;;;;;;;;;;2.51;70.11;101422.67;107645;1256;59605;-86
2023/02/22 00:52:06;;;;;;;;;;;;;;;2.50;70.09;101425.59;107742;1255;124776;-85
2023/02/22 00:54:39;;;;;;;;;;;;;;;2.52;69.96;101431.96;107757;1257;67357;-85
2023/02/22 00:57:06;;;;;;;;;;;;;;;2.52;69.97;101428.15;107441;1256;71380;-85
2023/02/22 00:59:56;;;;;;;;;;;;;;;2.53;70.03;101428.42;107032;1257;123787;-85
2023/02/22 01:02:42;;;;;;;;;;;;;;;2.51;69.98;101428.59;107466;1259;60168;-86
2023/02/22 01:05:22;;;;;;;;;;;;;;;2.49;69.73;101431.05;107174;1256;124000;-86
2023/02/22 01:07:49;;;;;;;;;;;;;;;2.42;69.61;101437.48;107244;1258;66787;-86
2023/02/22 01:10:18;;;;;;;;;;;;;;;2.34;69.54;101441.44;107503;1256;124574;-83
2023/02/22 01:12:45;;;;;;;;;;;;;;;2.24;69.25;101439.39;107500;1256;59394;-83
2023/02/22 01:15:14;;;;;;;;;;;;;;;2.14;69.46;101438.50;107529;1257;59822;-83
2023/02/22 01:17:44;;;;;;;;;;;;;;;2.03;69.41;101438.58;107515;1257;123968;-82
2023/02/22 01:20:13;;;;;;;;;;;;;;;1.91;69.30;101442.96;107698;1257;67793;-83
2023/02/22 01:22:41;;;;;;;;;;;;;;;1.82;69.41;101445.57;108668;1257;124302;-83
2023/02/22 01:25:18;;;;;;;;;;;;;;;1.71;69.36;101448.98;107390;1257;61579;-83
2023/02/22 01:27:45;;;;;;;;;;;;;;;1.62;69.53;101448.16;107383;1258;61418;-82
2023/02/22 01:30:16;;;;;;;;;;;;;;;1.55;69.39;101452.01;107630;1257;123848;-82
2023/02/22 01:32:44;;;;;;;;;;;;;;;1.48;69.55;101457.38;108834;1257;66034;-82
2023/02/22 01:35:13;;;;;;;;;;;;;;;1.42;69.66;101460.92;107934;1257;123969;-82
2023/02/22 01:37:40;;;;;;;;;;;;;;;1.41;69.93;101462.52;107373;1258;61327;-82
2023/02/22 01:40:08;;;;;;;;;;;;;;;1.43;69.94;101463.74;107969;1257;124174;-82
2023/02/22 01:42:36;;;;;;;;;;;;;;;1.49;70.12;101460.17;108306;1260;75189;-82
2023/02/22 01:45:21;;;;;;;;;;;;;;;1.58;70.45;101462.74;107676;1257;69825;-82
2023/02/22 01:47:48;;;;;;;;;;;;;;;1.66;70.09;101464.53;107576;1258;123872;-82
2023/02/22 01:50:16;;;;;;;;;;;;;;;1.73;70.37;101466.60;107475;1256;61034;-82
2023/02/22 01:52:43;;;;;;;;;;;;;;;1.82;70.61;101473.30;107462;1257;123749;-83
2023/02/22 01:55:10;;;;;;;;;;;;;;;1.88;70.49;101471.13;107539;1257;73380;-82
2023/02/22 01:57:39;;;;;;;;;;;;;;;1.94;70.54;101471.54;107530;1257;67212;-82
2023/02/22 02:00:11;;;;;;;;;;;;;;;1.99;70.61;101469.34;107683;1256;124365;-82
2023/02/22 02:02:40;;;;;;;;;;;;;;;2.05;70.64;101471.27;107856;1257;59773;-81
2023/02/22 02:05:07;;;;;;;;;;;;;;;2.07;70.29;101473.36;107816;1256;123914;-83
2023/02/22 02:07:35;;;;;;;;;;;;;;;2.11;70.58;101471.89;107728;1256;73820;-83
2023/02/22 02:10:05;;;;;;;;;;;;;;;2.16;70.62;101468.95;107634;1257;124953;-83
2023/02/22 02:12:34;;;;;;;;;;;;;;;2.21;70.51;101466.87;107818;1256;72083;-82
2023/02/22 02:15:20;;;;;;;;;;;;;;;2.23;70.37;101464.98;107803;1257;59774;-83
2023/02/22 02:17:47;;;;;;;;;;;;;;;2.26;70.50;101467.20;107651;1257;124083;-82
2023/02/22 02:20:34;;;;;;;;;;;;;;;2.31;70.29;101472.42;107357;1258;75118;-83
2023/02/22 02:23:10;;;;;;;;;;;;;;;2.34;70.23;101471.61;107370;1257;124209;-83
2023/02/22 02:25:53;;;;;;;;;;;;;;;2.37;70.26;101473.55;107703;1258;71377;-82
2023/02/22 02:28:20;;;;;;;;;;;;;;;2.40;70.28;101469.02;107593;1260;124390;-86
2023/02/22 02:31:06;;;;;;;;;;;;;;;2.42;70.07;101472.80;107551;1257;61145;-85
2023/02/22 02:33:38;;;;;;;;;;;;;;;2.43;70.16;101468.41;107482;1257;74933;-86
2023/02/22 02:36:10;;;;;;;;;;;;;;;2.43;70.24;101460.41;107270;1257;123988;-85
2023/02/22 02:38:55;;;;;;;;;;;;;;;2.47;70.33;101466.74;107348;1257;73106;-86
2023/02/22 02:41:32;;;;;;;;;;;;;;;2.49;70.24;101465.33;107298;1256;123787;-85
2023/02/22 02:44:25;;;;;;;;;;;;;;;2.51;70.28;101463.23;107395;1257;60906;-86
2023/02/22 02:46:59;;;;;;;;;;;;;;;2.53;70.23;101461.45;107490;1257;124412;-85
2023/02/22 02:49:29;;;;;;;;;;;;;;;2.54;70.37;101466.40;107534;1257;67610;-82
2023/02/22 02:51:56;;;;;;;;;;;;;;;2.56;70.23;101462.38;107526;1260;124314;-82
2023/02/22 02:54:23;;;;;;;;;;;;;;;2.57;70.16;101460.52;107627;1257;59367;-82
2023/02/22 02:56:50;;;;;;;;;;;;;;;2.58;70.17;101461.62;107829;1256;61234;-82
2023/02/22 02:59:39;;;;;;;;;;;;;;;2.60;70.14;101461.76;107400;1257;125158;-86
2023/02/22 03:02:11;;;;;;;;;;;;;;;2.61;70.13;101459.73;107304;1256;66034;-86
2023/02/22 03:04:55;;;;;;;;;;;;;;;2.64;70.17;101459.59;107225;1257;124397;-86
2023/02/22 03:07:41;;;;;;;;;;;;;;;2.66;70.05;101465.67;107367;1257;61207;-86
2023/02/22 03:10:39;;;;;;;;;;;;;;;2.69;70.10;101465.30;107276;1258;124780;-85
2023/02/22 03:13:25;;;;;;;;;;;;;;;2.72;70.11;101467.45;107361;1256;73534;-86
2023/02/22 03:15:55;;;;;;;;;;;;;;;2.74;70.01;101462.20;107329;1257;67573;-86
2023/02/22 03:18:27;;;;;;;;;;;;;;;2.76;70.02;101466.68;107327;1256;71439;-86
2023/02/22 03:20:54;;;;;;;;;;;;;;;2.79;69.98;101472.44;107293;1258;61494;-86
2023/02/22 03:23:27;;;;;;;;;;;;;;;2.80;70.01;101475.78;107110;1256;124646;-85
2023/02/22 03:25:56;;;;;;;;;;;;;;;2.82;69.81;101478.34;107041;1257;75156;-85
2023/02/22 03:28:25;;;;;;;;;;;;;;;2.86;69.82;101478.95;107028;1257;124803;-86
2023/02/22 03:31:11;;;;;;;;;;;;;;;2.87;69.77;101484.88;107067;1256;71384;-86
2023/02/22 03:33:45;;;;;;;;;;;;;;;2.87;69.74;101485.48;106817;1257;61514;-85
2023/02/22 03:36:23;;;;;;;;;;;;;;;2.91;69.73;101487.10;107061;1260;124354;-85
2023/02/22 03:38:57;;;;;;;;;;;;;;;2.92;69.55;101490.98;107196;1259;72827;-85
2023/02/22 03:41:26;;;;;;;;;;;;;;;2.92;69.41;101495.16;107100;1257;127538;-85
2023/02/22 03:44:04;;;;;;;;;;;;;;;2.92;69.44;101495.66;107545;1259;71128;-86
2023/02/22 03:46:38;;;;;;;;;;;;;;;2.94;69.42;101496.98;108243;1257;124530;-86
2023/02/22 03:49:18;;;;;;;;;;;;;;;2.96;69.35;101501.27;107254;1256;60309;-85
2023/02/22 03:51:51;;;;;;;;;;;;;;;2.95;69.27;101501.54;107113;1256;74491;-86
2023/02/22 03:54:22;;;;;;;;;;;;;;;2.89;69.35;101504.64;107210;1256;123720;-85
2023/02/22 03:56:51;;;;;;;;;;;;;;;2.85;69.18;101509.05;107398;1257;72584;-85
2023/02/22 03:59:26;;;;;;;;;;;;;;;2.79;69.00;101509.13;107351;1257;124393;-86
2023/02/22 04:01:58;;;;;;;;;;;;;;;2.74;69.15;101511.77;107493;1256;60997;-85
2023/02/22 04:04:34;;;;;;;;;;;;;;;2.70;69.09;101508.88;107353;1256;123917;-85
2023/02/22 04:07:01;;;;;;;;;;;;;;;2.67;69.04;101510.23;107244;1256;67594;-85
2023/02/22 04:09:31;;;;;;;;;;;;;;;2.62;69.22;101515.30;107233;1257;72734;-85
2023/02/22 04:11:58;;;;;;;;;;;;;;;2.60;69.18;101520.49;107257;1256;122790;-84
2023/02/22 04:14:25;;;;;;;;;;;;;;;2.59;69.16;101527.73;107618;1256;61231;-85
2023/02/22 04:16:52;;;;;;;;;;;;;;;2.57;69.43;101522.91;107516;1256;123987;-86
2023/02/22 04:19:22;;;;;;;;;;;;;;;2.56;69.41;101529.73;107188;1256;67060;-85
2023/02/22 04:21:49;;;;;;;;;;;;;;;2.54;69.48;101535.52;107299;1256;71150;-84
2023/02/22 04:24:17;;;;;;;;;;;;;;;2.52;69.28;101534.55;107454;1256;123722;-85
2023/02/22 04:26:44;;;;;;;;;;;;;;;2.54;69.55;101535.68;107682;1256;59313;-85
2023/02/22 04:29:20;;;;;;;;;;;;;;;2.55;69.71;101537.81;107456;1256;124381;-86
2023/02/22 04:31:47;;;;;;;;;;;;;;;2.57;69.76;101537.59;107323;1256;65812;-85
2023/02/22 04:34:14;;;;;;;;;;;;;;;2.59;69.71;101544.11;107383;1256;123924;-85
2023/02/22 04:36:43;;;;;;;;;;;;;;;2.60;69.82;101546.13;107775;1256;61065;-85
2023/02/22 04:39:14;;;;;;;;;;;;;;;2.62;69.68;101538.64;107507;1257;62306;-85
2023/02/22 04:42:11;;;;;;;;;;;;;;;2.62;69.82;101545.45;107075;1257;123840;-85
2023/02/22 04:44:38;;;;;;;;;;;;;;;2.60;69.82;101545.31;107355;1256;65837;-85
2023/02/22 04:47:05;;;;;;;;;;;;;;;2.57;69.83;101549.41;107338;1256;123931;-85
2023/02/22 04:49:32;;;;;;;;;;;;;;;2.55;69.86;101547.35;107694;1256;61098;-82
2023/02/22 04:51:59;;;;;;;;;;;;;;;2.55;69.85;101545.08;107727;1257;124022;-82
2023/02/22 04:54:26;;;;;;;;;;;;;;;2.51;69.79;101547.25;107545;1256;73231;-86
2023/02/22 04:57:01;;;;;;;;;;;;;;;2.50;69.90;101547.75;107308;1256;67256;-86
2023/02/22 04:59:39;;;;;;;;;;;;;;;2.50;69.93;101545.66;107116;1257;124410;-88
2023/02/22 05:02:07;;;;;;;;;;;;;;;2.52;70.08;101546.66;107510;1256;59767;-85
2023/02/22 05:04:36;;;;;;;;;;;;;;;2.52;70.06;101550.27;107802;1256;124126;-86
2023/02/22 05:07:04;;;;;;;;;;;;;;;2.49;70.03;101549.91;107742;1256;75218;-89
2023/02/22 05:09:31;;;;;;;;;;;;;;;2.48;70.22;101553.45;107303;1256;67171;-85
2023/02/22 05:11:58;;;;;;;;;;;;;;;2.48;70.19;101555.88;107387;1257;124640;-87
2023/02/22 05:14:45;;;;;;;;;;;;;;;2.47;70.08;101555.14;107270;1257;60935;-87
2023/02/22 05:17:13;;;;;;;;;;;;;;;2.47;70.23;101552.67;107208;1256;124571;-89
2023/02/22 05:19:42;;;;;;;;;;;;;;;2.48;70.27;101554.49;107431;1255;74495;-88
2023/02/22 05:22:09;;;;;;;;;;;;;;;2.48;70.20;101555.05;107278;1256;124884;-86
2023/02/22 05:24:43;;;;;;;;;;;;;;;2.54;70.29;101554.60;107411;1256;72671;-87
2023/02/22 05:27:11;;;;;;;;;;;;;;;2.57;70.50;101555.30;107422;1256;59975;-84
2023/02/22 05:29:40;;;;;;;;;;;;;;;2.60;70.47;101551.87;107338;1255;124609;-91
2023/02/22 05:32:07;;;;;;;;;;;;;;;2.62;70.40;101550.27;107685;1257;72093;-85
2023/02/22 05:34:34;;;;;;;;;;;;;;;2.63;70.32;101555.21;107646;1256;125475;-83
2023/02/22 05:37:02;;;;;;;;;;;;;;;2.64;70.45;101558.41;107862;1257;71192;-85
2023/02/22 05:39:29;;;;;;;;;;;;;;;2.67;70.30;101556.32;107779;1257;62286;-87
2023/02/22 05:41:57;;;;;;;;;;;;;;;2.67;70.23;101558.45;107429;1256;123527;-84
2023/02/22 05:44:24;;;;;;;;;;;;;;;2.71;70.19;101559.94;107846;1256;74694;-85
2023/02/22 05:46:51;;;;;;;;;;;;;;;2.72;70.19;101564.13;108059;1256;124568;-88
2023/02/22 05:49:18;;;;;;;;;;;;;;;2.72;70.09;101563.25;107817;1257;72516;-84
2023/02/22 05:51:48;;;;;;;;;;;;;;;2.72;70.07;101566.38;107854;1256;59661;-84
2023/02/22 05:54:15;;;;;;;;;;;;;;;2.66;70.09;101559.94;107961;1256;124445;-82
2023/02/22 05:56:42;;;;;;;;;;;;;;;2.69;70.12;101564.14;107914;1256;73570;-84
2023/02/22 05:59:09;;;;;;;;;;;;;;;2.67;69.89;101572.45;107271;1257;124180;-84
2023/02/22 06:01:42;;;;;;;;;;;;;;;2.61;69.94;101574.09;107532;1256;72763;-88
2023/02/22 06:04:20;;;;;;;;;;;;;;;2.55;69.94;101579.39;107342;1256;124072;-88
2023/02/22 06:06:55;;;;;;;;;;;;;;;2.52;69.94;101587.15;107587;1256;60943;-89
2023/02/22 06:09:22;;;;;;;;;;;;;;;2.46;70.13;101590.55;107542;1257;74738;-87
2023/02/22 06:11:49;;;;;;;;;;;;;;;2.48;70.29;101587.41;107593;1256;123848;-88
2023/02/22 06:14:17;;;;;;;;;;;;;;;2.48;70.21;101589.88;107460;1257;71172;-84
2023/02/22 06:16:53;;;;;;;;;;;;;;;2.48;70.33;101595.40;107127;1256;123852;-87
2023/02/22 06:19:21;;;;;;;;;;;;;;;2.49;70.26;101593.89;107481;1259;61249;-87
2023/02/22 06:21:50;;;;;;;;;;;;;;;2.49;70.22;101596.83;107868;1256;73362;-89
2023/02/22 06:24:24;;;;;;;;;;;;;;;2.47;70.38;101602.98;107556;1257;123705;-89
2023/02/22 06:26:59;;;;;;;;;;;;;;;2.50;70.35;101609.91;107558;1255;71142;-91
2023/02/22 06:29:27;;;;;;;;;;;;;;;2.48;70.44;101618.07;107566;1257;124057;-88
2023/02/22 06:31:54;;;;;;;;;;;;;;;2.47;70.48;101624.04;107784;1256;59946;-87
2023/02/22 06:34:21;;;;;;;;;;;;;;;2.45;70.69;101620.09;107610;1257;124746;-84
2023/02/22 06:36:48;;;;;;;;;;;;;;;2.50;70.81;101627.22;107601;1256;68366;-85
2023/02/22 06:39:15;;;;;;;;;;;;;;;2.56;70.67;101628.88;107795;1256;71682;-85
2023/02/22 06:41:42;;;;;;;;;;;;;;;2.56;70.72;101635.92;107861;1255;124622;-85
2023/02/22 06:44:12;;;;;;;;;;;;;;;2.52;70.75;101641.11;107555;1258;61692;-85
2023/02/22 06:46:51;;;;;;;;;;;;;;;2.43;71.13;101644.70;107461;1256;124751;-85
2023/02/22 06:49:25;;;;;;;;;;;;;;;2.25;71.71;101646.73;107604;1256;67048;-85
2023/02/22 06:51:54;;;;;;;;;;;;;;;2.21;72.45;101648.36;107370;1257;73007;-86
2023/02/22 06:54:24;;;;;;;;;;;;;;;2.23;72.93;101642.27;107280;1256;61148;-85
2023/02/22 06:56:52;;;;;;;;;;;;;;;2.30;73.38;101644.52;107595;1256;62275;-85
2023/02/22 06:59:20;;;;;;;;;;;;;;;2.37;73.43;101648.62;107463;1256;123955;-86
2023/02/22 07:02:04;;;;;;;;;;;;;;;2.38;73.57;101651.64;108076;1259;66957;-84
2023/02/22 07:04:48;;;;;;;;;;;;;;;2.38;73.40;101653.37;107642;1257;124900;-86
2023/02/22 07:07:15;;;;;;;;;;;;;;;2.42;73.77;101658.52;107460;1257;62169;-86
2023/02/22 07:09:45;;;;;;;;;;;;;;;2.48;73.71;101659.34;107360;1259;60862;-85
2023/02/22 07:12:12;;;;;;;;;;;;;;;2.55;73.52;101660.65;107410;1256;124785;-83
2023/02/22 07:14:40;;;;;;;;;;;;;;;2.65;73.78;101663.25;107418;1256;66914;-85
2023/02/22 07:17:10;;;;;;;;;;;;;;;2.76;73.81;101665.16;107298;1257;123990;-85
2023/02/22 07:19:39;;;;;;;;;;;;;;;2.87;73.70;101667.63;107595;1256;62173;-81
2023/02/22 07:22:25;;;;;;;;;;;;;;;2.93;73.55;101671.86;107292;1257;124211;-84
2023/02/22 07:24:54;;;;;;;;;;;;;;;2.99;73.51;101672.65;107342;1256;73095;-85
2023/02/22 07:27:23;;;;;;;;;;;;;;;3.02;73.15;101671.60;107557;1256;66993;-86
2023/02/22 07:29:50;;;;;;;;;;;;;;;3.06;73.26;101672.96;107507;1260;124392;-86
2023/02/22 07:32:17;;;;;;;;;;;;;;;3.12;73.25;101676.31;107746;1256;61417;-86
2023/02/22 07:34:44;;;;;;;;;;;;;;;3.15;73.15;101677.35;107450;1257;124277;-86
2023/02/22 07:37:11;;;;;;;;;;;;;;;3.18;73.12;101678.48;107516;1256;72789;-86
2023/02/22 07:39:40;;;;;;;;;;;;;;;3.26;73.16;101676.77;107168;1256;66420;-86
2023/02/22 07:42:36;;;;;;;;;;;;;;;3.33;73.00;101680.69;107214;1260;123785;-86
2023/02/22 07:45:04;;;;;;;;;;;;;;;3.33;72.80;101682.92;107348;1256;59711;-85
2023/02/22 07:47:37;;;;;;;;;;;;;;;3.36;72.84;101685.05;107365;1257;123877;-86
2023/02/22 07:50:04;;;;;;;;;;;;;;;3.41;72.81;101684.77;107367;1257;74737;-86
2023/02/22 07:52:32;;;;;;;;;;;;;;;3.48;72.77;101688.49;107495;1256;124096;-86
2023/02/22 07:54:59;;;;;;;;;;;;;;;3.56;72.95;101691.80;107696;1256;72843;-86
2023/02/22 07:57:26;;;;;;;;;;;;;;;3.64;73.01;101692.35;107693;1257;61241;-86
2023/02/22 07:59:56;;;;;;;;;;;;;;;3.74;73.02;101695.13;107730;1257;123849;-86
2023/02/22 08:02:24;;;;;;;;;;;;;;;3.86;73.00;101698.54;107794;1258;75173;-86
2023/02/22 08:04:53;;;;;;;;;;;;;;;3.96;72.97;101696.77;107724;1257;123907;-86
2023/02/22 08:07:20;;;;;;;;;;;;;;;4.08;72.79;101692.36;108202;1259;70787;-85
2023/02/22 08:09:47;;;;;;;;;;;;;;;4.20;72.84;101696.11;107506;1262;61241;-86
2023/02/22 08:12:15;;;;;;;;;;;;;;;4.31;72.75;101693.55;107567;1257;124895;-86
2023/02/22 08:14:44;;;;;;;;;;;;;;;4.39;72.26;101693.70;107580;1256;75136;-86
2023/02/22 08:17:12;;;;;;;;;;;;;;;4.45;72.01;101691.81;107481;1257;124692;-86
2023/02/22 08:19:45;;;;;;;;;;;;;;;4.56;71.97;101692.52;107583;1257;71345;-84
2023/02/22 08:22:12;;;;;;;;;;;;;;;4.68;71.54;101688.59;107435;1257;124733;-86
2023/02/22 08:24:43;;;;;;;;;;;;;;;4.76;71.42;101689.83;107544;1256;61261;-84
2023/02/22 08:27:16;;;;;;;;;;;;;;;4.87;71.29;101692.08;107555;1256;72923;-85
2023/02/22 08:29:43;;;;;;;;;;;;;;;4.98;70.97;101690.65;107584;1257;124861;-86
2023/02/22 08:32:10;;;;;;;;;;;;;;;5.08;70.55;101690.74;107748;1257;71456;-86
2023/02/22 08:34:45;;;;;;;;;;;;;;;5.15;70.57;101696.79;107643;1256;125329;-86
2023/02/22 08:37:13;;;;;;;;;;;;;;;5.27;70.37;101700.08;107690;1256;61739;-86
2023/02/22 08:39:46;;;;;;;;;;;;;;;5.35;69.76;101693.83;107765;1256;74935;-85
2023/02/22 08:42:13;;;;;;;;;;;;;;;5.44;69.49;101694.66;107900;1256;124726;-85
2023/02/22 08:44:41;;;;;;;;;;;;;;;5.50;69.32;101696.83;107974;1256;71894;-84
2023/02/22 08:47:08;;;;;;;;;;;;;;;5.57;69.19;101697.73;108098;1258;60345;-82
2023/02/22 08:49:35;;;;;;;;;;;;;;;5.63;69.04;101693.39;107995;1259;59246;-82
2023/02/22 08:52:02;;;;;;;;;;;;;;;5.68;68.73;101689.85;107664;1257;72421;-80
2023/02/22 08:54:29;;;;;;;;;;;;;;;5.71;68.54;101694.39;107700;1257;123588;-80
2023/02/22 08:56:56;;;;;;;;;;;;;;;5.75;68.42;101694.30;107763;1260;71102;-82
2023/02/22 08:59:23;;;;;;;;;;;;;;;5.82;68.35;101695.39;107868;1256;124925;-82
2023/02/22 09:01:50;;;;;;;;;;;;;;;5.85;68.16;101695.23;108085;1256;59425;-82
2023/02/22 09:04:17;;;;;;;;;;;;;;;5.88;67.91;101694.34;107980;1256;123897;-82
2023/02/22 09:06:50;;;;;;;;;;;;;;;5.85;67.67;101696.83;107857;1256;66338;-82
2023/02/22 09:09:20;;;;;;;;;;;;;;;5.83;67.57;101698.64;107920;1257;72303;-82
2023/02/22 09:11:48;;;;;;;;;;;;;;;5.85;67.66;101698.73;107993;1256;124384;-82
2023/02/22 09:14:17;;;;;;;;;;;;;;;5.84;67.37;101702.34;107992;1257;59690;-82
2023/02/22 09:17:07;;;;;;;;;;;;;;;5.83;67.26;101702.45;107609;1261;243874;-81
2023/02/22 09:19:34;;;;;;;;;;;;;;;5.81;67.06;101701.96;107891;1256;65820;-82
2023/02/22 09:22:01;;;;;;;;;;;;;;;5.80;66.97;101703.29;107903;1257;73092;-82
2023/02/22 09:24:28;;;;;;;;;;;;;;;5.74;66.75;101702.23;107785;1256;123779;-81
2023/02/22 09:26:55;;;;;;;;;;;;;;;5.72;66.75;101701.06;107568;1256;60500;-80
2023/02/22 09:29:23;;;;;;;;;;;;;;;5.74;66.89;101703.48;107584;1260;124149;-80
2023/02/22 09:31:51;;;;;;;;;;;;;;;5.75;66.85;101706.34;107621;1256;65925;-81
2023/02/22 09:34:19;;;;;;;;;;;;;;;5.71;66.58;101707.27;107464;1262;124442;-82
2023/02/22 09:36:46;;;;;;;;;;;;;;;5.68;66.58;101707.29;107557;1256;59620;-82
2023/02/22 09:39:14;;;;;;;;;;;;;;;5.68;66.57;101714.21;107298;1256;61263;-82
2023/02/22 09:41:44;;;;;;;;;;;;;;;5.66;66.61;101717.08;108795;1256;124308;-82
2023/02/22 09:44:15;;;;;;;;;;;;;;;5.70;66.55;101715.61;108864;1256;67320;-82
2023/02/22 09:46:44;;;;;;;;;;;;;;;5.75;66.63;101718.34;108774;1256;124001;-81
2023/02/22 09:49:16;;;;;;;;;;;;;;;5.79;66.49;101718.05;108821;1256;58974;-82
2023/02/22 09:51:48;;;;;;;;;;;;;;;5.84;66.41;101721.48;108899;1257;60026;-82
2023/02/22 09:54:18;;;;;;;;;;;;;;;5.86;66.14;101721.27;108846;1256;123807;-82
2023/02/22 09:56:45;;;;;;;;;;;;;;;5.85;66.05;101723.65;108891;1257;67925;-82
2023/02/22 09:59:14;;;;;;;;;;;;;;;5.95;66.33;101725.10;108730;1257;124265;-82
2023/02/22 10:01:43;;;;;;;;;;;;;;;6.08;66.26;101727.64;109023;1257;59217;-82
2023/02/22 10:04:17;;;;;;;;;;;;;;;6.19;66.32;101725.34;108862;1257;123965;-81
2023/02/22 10:06:55;;;;;;;;;;;;;;;6.32;65.98;101721.05;108882;1257;75222;-81
2023/02/22 10:09:36;;;;;;;;;;;;;;;6.35;65.54;101717.84;108807;1257;67053;-81
2023/02/22 10:12:10;;;;;;;;;;;;;;;6.36;65.29;101726.48;108856;1256;124066;-85
2023/02/22 10:14:42;;;;;;;;;;;;;;;6.39;65.10;101727.69;107909;1257;61043;-85
2023/02/22 10:17:32;;;;;;;;;;;;;;;6.46;64.98;101724.77;107923;1256;124187;-81
2023/02/22 10:20:30;;;;;;;;;;;;;;;6.48;64.84;101725.42;107901;1261;72168;-81
2023/02/22 10:23:03;;;;;;;;;;;;;;;6.52;64.83;101717.92;108060;1256;124706;-81
2023/02/22 10:25:33;;;;;;;;;;;;;;;6.57;64.86;101718.41;108042;1257;71762;-81
2023/02/22 10:28:23;;;;;;;;;;;;;;;6.58;64.70;101720.06;107932;1257;60044;-80
2023/02/22 10:30:55;;;;;;;;;;;;;;;6.58;64.62;101717.80;107981;1257;60012;-81
2023/02/22 10:33:25;;;;;;;;;;;;;;;6.57;64.47;101721.77;108232;1256;73550;-81
2023/02/22 10:35:53;;;;;;;;;;;;;;;6.63;64.60;101728.86;108268;1257;124525;-81
2023/02/22 10:38:22;;;;;;;;;;;;;;;6.61;64.35;101731.40;107869;1256;71065;-84
2023/02/22 10:40:58;;;;;;;;;;;;;;;6.52;63.98;101730.84;107929;1256;124161;-84
2023/02/22 10:43:26;;;;;;;;;;;;;;;6.41;63.85;101734.09;107707;1257;61177;-85
2023/02/22 10:45:57;;;;;;;;;;;;;;;6.34;64.11;101731.75;107667;1262;73383;-85
2023/02/22 10:48:24;;;;;;;;;;;;;;;6.42;64.26;101721.73;107422;1257;123830;-84
2023/02/22 10:50:52;;;;;;;;;;;;;;;6.41;63.99;101722.24;107519;1256;73169;-84
2023/02/22 10:53:37;;;;;;;;;;;;;;;6.37;63.95;101722.20;107258;1256;124000;-82
2023/02/22 10:56:21;;;;;;;;;;;;;;;6.37;63.70;101723.04;108853;1256;59418;-81
2023/02/22 10:58:53;;;;;;;;;;;;;;;6.32;63.65;101721.36;108436;1256;73383;-81
2023/02/22 11:01:42;;;;;;;;;;;;;;;6.28;63.46;101725.98;108930;1256;67388;-81
2023/02/22 11:04:12;;;;;;;;;;;;;;;6.23;63.45;101724.65;108861;1256;71363;-80
2023/02/22 11:06:56;;;;;;;;;;;;;;;6.20;63.55;101723.98;108704;1256;123541;-81
2023/02/22 11:09:27;;;;;;;;;;;;;;;6.17;63.58;101721.71;108891;1256;60146;-80
2023/02/22 11:12:09;;;;;;;;;;;;;;;6.15;63.50;101722.09;108849;1256;123855;-82
2023/02/22 11:14:37;;;;;;;;;;;;;;;6.10;63.44;101724.46;108200;1256;67064;-81
2023/02/22 11:17:30;;;;;;;;;;;;;;;6.05;63.46;101725.38;107505;1256;123800;-80
2023/02/22 11:19:56;;;;;;;;;;;;;;;6.02;63.45;101726.05;107649;1257;60894;-80
2023/02/22 11:22:41;;;;;;;;;;;;;;;5.95;63.18;101724.56;107554;1257;124594;-80
2023/02/22 11:25:10;;;;;;;;;;;;;;;5.82;62.54;101727.81;107447;1257;74436;-79
2023/02/22 11:27:47;;;;;;;;;;;;;;;5.70;62.75;101729.02;107523;1257;67089;-81
2023/02/22 11:30:29;;;;;;;;;;;;;;;5.69;62.81;101732.23;107371;1256;124571;-81
2023/02/22 11:33:09;;;;;;;;;;;;;;;5.64;62.79;101732.67;107756;1260;61334;-81
2023/02/22 11:35:53;;;;;;;;;;;;;;;5.60;62.95;101738.83;107630;1256;124997;-80
2023/02/22 11:38:24;;;;;;;;;;;;;;;5.56;63.05;101737.23;108993;1256;73210;-80
2023/02/22 11:41:13;;;;;;;;;;;;;;;5.55;63.20;101735.94;108845;1257;124549;-81
2023/02/22 11:43:44;;;;;;;;;;;;;;;5.52;63.12;101738.55;108824;1256;72621;-81
2023/02/22 11:46:12;;;;;;;;;;;;;;;5.50;63.13;101736.71;108950;1257;58979;-81
2023/02/22 11:48:43;;;;;;;;;;;;;;;5.52;63.13;101739.93;108737;1257;123704;-81
2023/02/22 11:51:13;;;;;;;;;;;;;;;5.53;63.00;101742.44;108795;1257;74701;-81
2023/02/22 11:54:04;;;;;;;;;;;;;;;5.52;62.90;101739.05;108900;1256;124314;-81
2023/02/22 11:56:33;;;;;;;;;;;;;;;5.46;62.60;101740.27;108990;1257;71881;-81
2023/02/22 11:59:20;;;;;;;;;;;;;;;5.44;62.66;101743.98;108723;1256;124079;-80
2023/02/22 12:01:55;;;;;;;;;;;;;;;5.44;62.62;101747.42;109027;1256;61095;-81
2023/02/22 12:04:29;;;;;;;;;;;;;;;5.37;62.73;101749.29;108410;1262;123831;-81
2023/02/22 12:07:15;;;;;;;;;;;;;;;5.26;62.83;101749.46;107589;1257;66760;-81
2023/02/22 12:09:43;;;;;;;;;;;;;;;5.05;62.78;101754.58;107802;1257;72812;-80
2023/02/22 12:12:28;;;;;;;;;;;;;;;4.91;62.94;101754.92;107750;1257;123967;-81
2023/02/22 12:15:15;;;;;;;;;;;;;;;4.85;63.00;101750.58;108914;1257;59924;-81
2023/02/22 12:17:50;;;;;;;;;;;;;;;4.83;63.21;101750.94;108967;1255;123675;-81
2023/02/22 12:20:22;;;;;;;;;;;;;;;4.91;63.44;101745.66;109066;1256;65787;-81
2023/02/22 12:23:01;;;;;;;;;;;;;;;5.02;63.53;101743.10;108864;1257;124050;-81
2023/02/22 12:25:33;;;;;;;;;;;;;;;5.16;63.47;101742.23;109006;1257;59100;-85
2023/02/22 12:28:10;;;;;;;;;;;;;;;5.27;63.57;101739.79;107874;1260;61118;-81
2023/02/22 12:30:38;;;;;;;;;;;;;;;5.41;63.62;101743.24;107560;1255;123863;-81
2023/02/22 12:33:09;;;;;;;;;;;;;;;5.56;63.60;101743.69;107499;1256;67046;-85
2023/02/22 12:35:36;;;;;;;;;;;;;;;5.72;63.59;101742.14;107814;1257;124236;-80
2023/02/22 12:38:08;;;;;;;;;;;;;;;5.82;63.35;101737.23;107704;1256;61389;-81
2023/02/22 12:40:38;;;;;;;;;;;;;;;5.91;63.11;101740.86;108641;1257;124110;-81
2023/02/22 12:43:11;;;;;;;;;;;;;;;5.95;63.00;101741.83;109069;1257;74536;-81
2023/02/22 12:45:41;;;;;;;;;;;;;;;6.07;63.11;101745.33;109084;1257;65747;-81
2023/02/22 12:48:13;;;;;;;;;;;;;;;6.17;62.84;101742.60;108979;1257;124082;-81
2023/02/22 12:50:40;;;;;;;;;;;;;;;6.23;62.83;101738.79;108873;1257;59395;-81
2023/02/22 12:53:13;;;;;;;;;;;;;;;6.31;62.68;101740.79;108790;1257;123865;-81
2023/02/22 12:55:44;;;;;;;;;;;;;;;6.37;62.59;101739.08;108870;1257;74027;-81
2023/02/22 12:58:24;;;;;;;;;;;;;;;6.42;62.27;101740.93;108856;1260;65925;-81
2023/02/22 13:00:59;;;;;;;;;;;;;;;6.39;61.91;101740.77;108768;1257;71424;-81